Preview of NWS' New Version of Forecast
This preview is not operational and should not be used for support decisions.

Terminal Aerodrome Forecast (TAF)

Issued by National Weather Service (NWS)

                            
000
FTAK31 PAFC 220527
TAFADL
TAF
PADL 220527Z 2206/2306 VRB05KT P6SM SCT060
     FM221800 03005KT 5SM HZ SCT025 OVC035
     FM230000 15007KT P6SM BKN025=